createdAt,value
2018-12-11T00:01:22.756Z,100907.77
2018-12-11T00:03:52.015Z,100898.73
2018-12-11T00:06:20.935Z,100913.00
2018-12-11T00:08:49.874Z,100903.67
2018-12-11T00:11:18.766Z,100912.50
2018-12-11T00:13:47.686Z,100915.77
2018-12-11T00:16:16.635Z,100911.87
2018-12-11T00:18:45.605Z,100913.83
2018-12-11T00:21:14.498Z,100909.00
2018-12-11T00:23:43.427Z,100911.58
2018-12-11T00:26:12.321Z,100921.70
2018-12-11T00:28:41.255Z,100916.38
2018-12-11T00:31:10.167Z,100921.00
2018-12-11T00:33:39.066Z,100917.70
2018-12-11T00:36:07.997Z,100919.77
2018-12-11T00:38:36.890Z,100920.88
2018-12-11T00:41:05.797Z,100920.58
2018-12-11T00:43:34.671Z,100925.30
2018-12-11T00:46:03.685Z,100919.27
2018-12-11T00:48:32.907Z,100929.92
2018-12-11T00:51:01.784Z,100926.94
2018-12-11T00:53:30.684Z,100923.67
2018-12-11T00:55:59.611Z,100919.14
2018-12-11T00:58:28.550Z,100924.37
2018-12-11T01:00:57.492Z,100923.87
2018-12-11T02:32:15.067Z,100981.44
2018-12-11T02:34:44.161Z,100983.19
2018-12-11T02:37:13.424Z,100977.77
2018-12-11T02:39:42.567Z,100988.12
2018-12-11T02:42:11.820Z,100990.23
2018-12-11T02:44:41.630Z,100990.14
2018-12-11T02:47:11.759Z,100987.38
2018-12-11T02:49:40.983Z,100993.42
2018-12-11T02:52:10.147Z,100986.46
2018-12-11T03:09:20.245Z,100998.89
2018-12-11T03:11:49.458Z,100999.53
2018-12-11T03:14:18.722Z,101000.03
2018-12-11T03:16:48.217Z,100993.51
2018-12-11T03:22:31.787Z,101003.03
2018-12-11T03:25:01.098Z,101009.47
2018-12-11T03:27:30.362Z,101014.95
2018-12-11T03:29:59.595Z,101010.58
2018-12-11T03:32:28.850Z,101007.49
2018-12-11T03:34:58.120Z,101015.70
2018-12-11T03:37:27.844Z,101014.38
2018-12-11T03:39:57.185Z,101026.55
2018-12-11T03:42:32.347Z,101026.63
2018-12-11T03:45:01.687Z,101026.25
2018-12-11T03:47:30.944Z,101034.66
2018-12-11T03:50:00.241Z,101024.38
2018-12-11T04:01:22.737Z,101033.91
2018-12-11T04:03:51.636Z,101040.98
2018-12-11T04:06:20.706Z,101035.88
2018-12-11T04:08:49.623Z,101038.01
2018-12-11T04:11:18.502Z,101036.91
2018-12-11T04:13:47.433Z,101042.09
2018-12-11T04:16:17.293Z,101039.84
2018-12-11T04:18:46.176Z,101043.45
2018-12-11T04:21:15.111Z,101045.66
2018-12-11T04:23:44.002Z,101052.97
2018-12-11T04:26:12.867Z,101040.86
2018-12-11T04:28:42.218Z,101053.53
2018-12-11T04:31:11.147Z,101056.50
2018-12-11T04:33:40.172Z,101057.64
2018-12-11T04:36:09.140Z,101055.70
2018-12-11T04:38:38.345Z,101057.03
2018-12-11T04:41:07.229Z,101058.55
2018-12-11T04:43:36.127Z,101055.62
2018-12-11T04:46:05.027Z,101062.12
2018-12-11T04:48:34.046Z,101063.45
2018-12-11T04:51:03.048Z,101074.62
2018-12-11T04:53:31.941Z,101072.36
2018-12-11T04:56:00.869Z,101066.85
2018-12-11T04:58:29.755Z,101076.83
2018-12-11T05:00:58.727Z,101080.03
2018-12-11T05:03:27.948Z,101074.84
2018-12-11T05:05:57.072Z,101075.13
2018-12-11T05:08:26.574Z,101082.27
2018-12-11T05:10:55.452Z,101091.11
2018-12-11T05:13:24.375Z,101089.84
2018-12-11T05:15:53.663Z,101093.28
2018-12-11T05:18:22.546Z,101092.94
2018-12-11T05:20:51.556Z,101097.13
2018-12-11T05:23:20.447Z,101096.25
2018-12-11T05:25:49.318Z,101102.26
2018-12-11T05:28:18.229Z,101104.85
2018-12-11T05:30:47.356Z,101112.05
2018-12-11T05:33:16.470Z,101109.34
2018-12-11T05:35:45.459Z,101109.08
2018-12-11T05:38:14.468Z,101112.91
2018-12-11T05:40:43.490Z,101115.08
2018-12-11T05:43:12.362Z,101119.06
2018-12-11T05:45:41.254Z,101124.88
2018-12-11T05:48:10.155Z,101125.48
2018-12-11T05:50:39.106Z,101122.75
2018-12-11T05:53:08.098Z,101131.03
2018-12-11T05:55:36.988Z,101124.27
2018-12-11T05:58:05.934Z,101116.41
2018-12-11T06:00:34.814Z,101127.06
2018-12-11T06:03:03.782Z,101125.23
2018-12-11T06:05:32.778Z,101134.86
2018-12-11T06:08:01.783Z,101130.96
2018-12-11T06:10:30.717Z,101137.09
2018-12-11T06:12:59.682Z,101138.91
2018-12-11T06:15:28.659Z,101143.88
2018-12-11T06:17:57.665Z,101155.06
2018-12-11T06:20:26.713Z,101149.59
2018-12-11T06:22:55.715Z,101153.42
2018-12-11T06:25:24.642Z,101154.38
2018-12-11T06:27:53.611Z,101157.82
2018-12-11T06:30:22.546Z,101157.32
2018-12-11T06:32:51.573Z,101164.26
2018-12-11T06:35:20.529Z,101161.22
2018-12-11T06:37:49.443Z,101156.36
2018-12-11T06:40:18.409Z,101163.39
2018-12-11T06:42:47.363Z,101167.81
2018-12-11T06:45:16.321Z,101171.94
2018-12-11T06:47:45.278Z,101178.61
2018-12-11T06:50:14.167Z,101184.23
2018-12-11T06:52:43.101Z,101181.77
2018-12-11T06:55:12.021Z,101189.18
2018-12-11T06:57:41.012Z,101195.89
2018-12-11T07:00:10.030Z,101195.65
2018-12-11T07:02:39.028Z,101196.89
2018-12-11T07:05:08.129Z,101206.00
2018-12-11T07:07:37.057Z,101207.22
2018-12-11T07:10:07.028Z,101215.12
2018-12-11T07:12:35.994Z,101221.21
2018-12-11T07:15:06.277Z,101217.98
2018-12-11T07:17:35.218Z,101224.63
2018-12-11T07:20:04.919Z,101221.73
2018-12-11T07:22:33.860Z,101225.07
2018-12-11T07:25:02.819Z,101226.69
2018-12-11T07:27:31.753Z,101224.94
2018-12-11T07:30:00.828Z,101230.36
2018-12-11T07:32:29.814Z,101231.91
2018-12-11T07:34:58.787Z,101232.48
2018-12-11T07:37:27.768Z,101227.55
2018-12-11T07:40:03.522Z,101222.69
2018-12-11T07:42:32.507Z,101227.42
2018-12-11T07:45:01.480Z,101239.28
2018-12-11T07:47:30.370Z,101238.45
2018-12-11T07:49:59.347Z,101231.92
2018-12-11T07:52:28.249Z,101240.80
2018-12-11T07:55:03.114Z,101245.38
2018-12-11T07:57:32.141Z,101247.06
2018-12-11T08:00:01.142Z,101249.27
2018-12-11T08:02:30.113Z,101248.77
2018-12-11T08:04:59.071Z,101260.90
2018-12-11T08:07:28.050Z,101251.51
2018-12-11T08:09:57.023Z,101253.21
2018-12-11T08:12:25.953Z,101257.72
2018-12-11T08:14:54.890Z,101259.55
2018-12-11T08:17:23.871Z,101261.27
2018-12-11T08:19:52.861Z,101270.63
2018-12-11T08:22:21.795Z,101266.59
2018-12-11T08:24:50.828Z,101267.78
2018-12-11T08:27:19.797Z,101278.43
2018-12-11T08:29:48.688Z,101276.53
2018-12-11T08:32:17.684Z,101272.80
2018-12-11T08:34:46.687Z,101280.41
2018-12-11T08:37:15.649Z,101284.92
2018-12-11T08:39:44.639Z,101289.96
2018-12-11T08:42:13.562Z,101287.00
2018-12-11T08:44:42.601Z,101289.20
2018-12-11T08:47:11.712Z,101298.08
2018-12-11T08:49:40.736Z,101300.87
2018-12-11T08:52:09.665Z,101303.79
2018-12-11T08:54:38.984Z,101311.46
2018-12-11T08:57:08.113Z,101318.69
2018-12-11T08:59:37.079Z,101315.68
2018-12-11T09:02:06.618Z,101317.25
2018-12-11T09:04:36.546Z,101315.58
2018-12-11T09:07:05.509Z,101324.66
2018-12-11T09:09:34.692Z,101318.14
2018-12-11T09:12:03.647Z,101320.59
2018-12-11T09:14:37.324Z,101326.94
2018-12-11T09:17:10.258Z,101322.86
2018-12-11T09:19:37.561Z,101325.16
2018-12-11T09:22:06.891Z,101338.23
2018-12-11T09:24:35.847Z,101335.83
2018-12-11T09:27:04.930Z,101334.22
2018-12-11T09:29:35.686Z,101343.94
2018-12-11T09:32:06.108Z,101339.19
2018-12-11T09:34:35.046Z,101336.08
2018-12-11T09:37:04.038Z,101341.11
2018-12-11T09:39:33.089Z,101337.86
2018-12-11T09:42:07.084Z,101339.63
2018-12-11T09:44:33.057Z,101339.06
2018-12-11T09:47:02.036Z,101338.58
2018-12-11T09:49:31.240Z,101333.56
2018-12-11T09:52:00.639Z,101340.81
2018-12-11T09:54:30.695Z,101337.09
2018-12-11T09:57:00.777Z,101343.94
2018-12-11T09:59:30.741Z,101351.74
2018-12-11T10:01:59.691Z,101352.02
2018-12-11T10:04:28.814Z,101344.20
2018-12-11T10:06:58.358Z,101349.11
2018-12-11T10:09:27.535Z,101344.20
2018-12-11T10:11:56.507Z,101354.87
2018-12-11T10:14:25.518Z,101354.69
2018-12-11T10:16:54.551Z,101358.91
2018-12-11T10:19:23.558Z,101356.12
2018-12-11T10:21:52.631Z,101355.34
2018-12-11T10:24:24.751Z,101360.62
2018-12-11T10:26:54.933Z,101356.01
2018-12-11T10:29:23.952Z,101355.45
2018-12-11T10:31:52.921Z,101350.81
2018-12-11T10:34:22.831Z,101349.19
2018-12-11T10:36:53.755Z,101349.23
2018-12-11T10:39:22.742Z,101350.38
2018-12-11T10:41:51.745Z,101344.69
2018-12-11T10:44:20.736Z,101348.80
2018-12-11T10:46:49.967Z,101350.27
2018-12-11T10:49:18.960Z,101354.97
2018-12-11T10:51:48.583Z,101346.85
2018-12-11T10:54:17.553Z,101351.30
2018-12-11T10:56:46.602Z,101354.86
2018-12-11T10:59:15.684Z,101358.91
2018-12-11T11:01:47.192Z,101358.58
2018-12-11T11:04:16.882Z,101351.61
2018-12-11T11:06:46.999Z,101358.95
2018-12-11T11:09:16.680Z,101360.80
2018-12-11T11:11:46.102Z,101363.35
2018-12-11T11:14:15.360Z,101363.88
2018-12-11T11:16:44.368Z,101367.84
2018-12-11T11:19:13.365Z,101358.58
2018-12-11T11:21:42.533Z,101360.41
2018-12-11T11:24:11.446Z,101366.95
2018-12-11T11:26:40.395Z,101375.47
2018-12-11T11:29:09.377Z,101378.44
2018-12-11T11:31:38.326Z,101379.13
2018-12-11T11:34:07.242Z,101385.23
2018-12-11T11:36:36.186Z,101378.88
2018-12-11T11:39:07.889Z,101375.47
2018-12-11T11:41:36.840Z,101380.67
2018-12-11T11:44:06.575Z,101376.83
2018-12-11T11:46:35.642Z,101372.06
2018-12-11T11:49:04.635Z,101383.38
2018-12-11T11:51:33.622Z,101384.59
2018-12-11T11:54:02.727Z,101388.30
2018-12-11T11:56:31.644Z,101387.68
2018-12-11T11:59:00.645Z,101393.52
2018-12-11T12:01:34.571Z,101399.44
2018-12-11T12:04:04.247Z,101403.03
2018-12-11T12:06:35.162Z,101404.05
2018-12-11T12:09:06.294Z,101413.20
2018-12-11T12:11:36.791Z,101410.28
2018-12-11T12:14:06.386Z,101409.72
2018-12-11T12:16:35.886Z,101415.55
2018-12-11T12:19:05.500Z,101416.00
2018-12-11T12:21:37.597Z,101419.36
2018-12-11T12:24:06.579Z,101417.50
2018-12-11T12:26:35.496Z,101429.97
2018-12-11T12:29:04.962Z,101412.42
2018-12-11T12:31:34.345Z,101417.07
2018-12-11T12:34:03.305Z,101423.02
2018-12-11T12:36:32.309Z,101427.09
2018-12-11T12:39:01.325Z,101428.56
2018-12-11T12:41:30.269Z,101430.09
2018-12-11T12:43:59.226Z,101436.68
2018-12-11T12:46:28.253Z,101436.69
2018-12-11T12:48:57.157Z,101436.09
2018-12-11T12:51:26.094Z,101441.56
2018-12-11T12:53:55.047Z,101436.79
2018-12-11T12:56:24.103Z,101439.45
2018-12-11T12:58:53.085Z,101436.41
2018-12-11T13:01:22.045Z,101436.54
2018-12-11T13:03:51.126Z,101431.61
2018-12-11T13:06:20.293Z,101437.19
2018-12-11T13:08:49.240Z,101438.19
2018-12-11T13:11:18.214Z,101447.45
2018-12-11T13:13:47.155Z,101444.85
2018-12-11T13:16:16.122Z,101448.38
2018-12-11T13:18:45.067Z,101443.39
2018-12-11T13:21:14.418Z,101451.08
2018-12-11T13:23:43.349Z,101457.06
2018-12-11T13:26:13.853Z,101449.94
2018-12-11T13:28:42.840Z,101460.79
2018-12-11T13:31:11.898Z,101454.19
2018-12-11T13:33:41.666Z,101453.18
2018-12-11T13:36:11.606Z,101460.29
2018-12-11T13:38:42.060Z,101468.91
2018-12-11T13:41:11.104Z,101467.08
2018-12-11T13:43:40.453Z,101478.87
2018-12-11T13:46:09.356Z,101476.49
2018-12-11T13:48:38.463Z,101474.81
2018-12-11T13:51:07.476Z,101484.22
2018-12-11T13:53:36.395Z,101491.94
2018-12-11T13:56:05.701Z,101492.87
2018-12-11T13:58:34.738Z,101490.75
2018-12-11T14:01:04.145Z,101492.78
2018-12-11T14:03:33.080Z,101488.14
2018-12-11T14:06:02.118Z,101495.13
2018-12-11T14:08:31.658Z,101496.70
2018-12-11T14:11:00.579Z,101506.81
2018-12-11T14:13:30.339Z,101510.20
2018-12-11T14:15:59.269Z,101511.25
2018-12-11T14:18:32.040Z,101509.73
2018-12-11T14:21:01.096Z,101508.23
2018-12-11T14:23:30.205Z,101515.52
2018-12-11T14:25:59.233Z,101515.06
2018-12-11T14:28:28.361Z,101519.13
2018-12-11T14:30:57.328Z,101520.86
2018-12-11T14:33:26.293Z,101521.54
2018-12-11T14:35:55.306Z,101516.53
2018-12-11T14:38:24.214Z,101523.80
2018-12-11T14:40:53.105Z,101523.53
2018-12-11T14:43:22.142Z,101524.40
2018-12-11T14:45:51.065Z,101533.34
2018-12-11T14:48:20.032Z,101529.64
2018-12-11T14:50:48.924Z,101535.37
2018-12-11T14:53:17.848Z,101536.97
2018-12-11T14:55:46.837Z,101543.31
2018-12-11T14:58:16.741Z,101538.98
2018-12-11T15:00:45.611Z,101537.38
2018-12-11T15:03:14.601Z,101540.09
2018-12-11T15:05:43.548Z,101544.83
2018-12-11T15:08:12.431Z,101536.52
2018-12-11T15:10:41.429Z,101538.17
2018-12-11T15:13:10.534Z,101540.86
2018-12-11T15:15:39.669Z,101547.23
2018-12-11T15:18:08.647Z,101558.78
2018-12-11T15:20:37.599Z,101542.84
2018-12-11T15:23:06.552Z,101541.41
2018-12-11T15:25:35.442Z,101538.77
2018-12-11T15:28:04.373Z,101542.19
2018-12-11T15:30:33.430Z,101547.19
2018-12-11T15:33:02.396Z,101547.23
2018-12-11T15:35:31.295Z,101546.45
2018-12-11T15:38:00.335Z,101554.92
2018-12-11T15:40:29.237Z,101550.79
2018-12-11T15:42:58.443Z,101544.05
2018-12-11T15:45:27.411Z,101544.75
2018-12-11T15:47:56.342Z,101546.11
2018-12-11T15:50:25.300Z,101544.33
2018-12-11T15:52:54.203Z,101549.80
2018-12-11T15:55:23.157Z,101552.52
2018-12-11T15:57:52.037Z,101551.86
2018-12-11T16:00:21.190Z,101541.59
2018-12-11T16:02:50.194Z,101550.97
2018-12-11T16:05:19.117Z,101552.84
2018-12-11T16:07:48.061Z,101553.14
2018-12-11T16:10:17.142Z,101553.24
2018-12-11T16:12:46.072Z,101550.53
2018-12-11T16:15:14.977Z,101559.00
2018-12-11T16:17:43.889Z,101553.98
2018-12-11T16:20:13.009Z,101554.58
2018-12-11T16:22:42.026Z,101557.50
2018-12-11T16:25:10.968Z,101562.66
2018-12-11T16:27:40.253Z,101558.93
2018-12-11T16:30:09.364Z,101560.97
2018-12-11T16:32:38.273Z,101567.00
2018-12-11T16:35:07.653Z,101565.19
2018-12-11T16:37:36.919Z,101569.45
2018-12-11T16:40:06.412Z,101573.97
2018-12-11T16:42:35.353Z,101573.75
2018-12-11T16:45:04.766Z,101569.72
2018-12-11T16:47:33.681Z,101580.97
2018-12-11T16:50:02.649Z,101581.17
2018-12-11T16:52:32.257Z,101586.67
2018-12-11T16:55:01.208Z,101584.80
2018-12-11T16:57:30.403Z,101592.99
2018-12-11T16:59:59.325Z,101594.64
2018-12-11T17:02:28.264Z,101596.58
2018-12-11T17:04:57.223Z,101595.79
2018-12-11T17:07:26.408Z,101608.89
2018-12-11T17:09:55.439Z,101603.03
2018-12-11T17:12:24.633Z,101595.74
2018-12-11T17:14:53.689Z,101605.75
2018-12-11T17:17:23.196Z,101610.17
2018-12-11T17:19:52.135Z,101619.19
2018-12-11T17:22:21.023Z,101620.64
2018-12-11T17:24:49.922Z,101625.59
2018-12-11T17:27:18.839Z,101629.16
2018-12-11T17:29:47.801Z,101631.24
2018-12-11T17:32:16.763Z,101635.11
2018-12-11T17:34:45.673Z,101637.34
2018-12-11T17:37:14.586Z,101638.41
2018-12-11T17:39:43.542Z,101650.67
2018-12-11T17:42:12.414Z,101654.20
2018-12-11T17:44:41.294Z,101647.66
2018-12-11T17:47:10.209Z,101645.72
2018-12-11T17:49:39.214Z,101653.65
2018-12-11T17:52:08.138Z,101661.35
2018-12-11T17:54:37.143Z,101659.04
2018-12-11T17:57:06.091Z,101660.77
2018-12-11T17:59:34.949Z,101669.02
2018-12-11T18:02:06.360Z,101670.97
2018-12-11T18:04:35.301Z,101673.28
2018-12-11T18:07:04.232Z,101674.81
2018-12-11T18:09:33.193Z,101683.73
2018-12-11T18:12:02.186Z,101686.03
2018-12-11T18:14:31.088Z,101686.36
2018-12-11T18:17:00.012Z,101686.35
2018-12-11T18:19:28.945Z,101697.89
2018-12-11T18:21:57.850Z,101702.06
2018-12-11T18:24:26.845Z,101699.03
2018-12-11T18:26:55.775Z,101699.44
2018-12-11T18:29:24.655Z,101703.39
2018-12-11T18:31:53.969Z,101703.50
2018-12-11T18:34:23.081Z,101699.02
2018-12-11T18:36:52.070Z,101708.23
2018-12-11T18:39:21.070Z,101708.27
2018-12-11T18:41:50.187Z,101707.47
2018-12-11T18:44:20.050Z,101703.77
2018-12-11T18:46:48.979Z,101707.60
2018-12-11T18:49:17.966Z,101717.97
2018-12-11T18:51:46.912Z,101711.95
2018-12-11T18:54:15.802Z,101721.10
2018-12-11T18:56:45.017Z,101713.10
2018-12-11T18:59:14.130Z,101707.14
2018-12-11T19:01:43.120Z,101707.15
2018-12-11T19:04:12.036Z,101716.11
2018-12-11T19:06:40.952Z,101707.50
2018-12-11T19:09:09.894Z,101715.84
2018-12-11T19:11:38.806Z,101716.55
2018-12-11T19:14:07.765Z,101715.64
2018-12-11T19:16:36.699Z,101713.21
2018-12-11T19:19:05.650Z,101724.82
2018-12-11T19:21:34.645Z,101723.94
2018-12-11T19:24:25.302Z,101724.69
2018-12-11T19:26:54.326Z,101725.39
2018-12-11T19:29:23.357Z,101727.06
2018-12-11T19:31:52.455Z,101725.36
2018-12-11T19:34:21.836Z,101722.00
2018-12-11T19:36:50.851Z,101729.34
2018-12-11T19:39:19.760Z,101729.30
2018-12-11T19:41:48.696Z,101733.14
2018-12-11T19:44:17.714Z,101723.61
2018-12-11T19:46:46.584Z,101727.92
2018-12-11T19:49:15.524Z,101730.02
2018-12-11T19:51:44.466Z,101731.78
2018-12-11T19:54:13.430Z,101730.13
2018-12-11T19:56:42.310Z,101732.94
2018-12-11T19:59:11.332Z,101735.37
2018-12-11T20:01:40.312Z,101730.83
2018-12-11T20:04:09.974Z,101737.69
2018-12-11T20:06:38.892Z,101747.98
2018-12-11T20:09:08.548Z,101742.52
2018-12-11T20:11:37.475Z,101744.66
2018-12-11T20:14:06.486Z,101742.09
2018-12-11T20:16:35.482Z,101740.75
2018-12-11T20:19:04.491Z,101752.02
2018-12-11T20:21:33.507Z,101755.94
2018-12-11T20:24:05.055Z,101755.58
2018-12-11T20:26:38.978Z,101756.19
2018-12-11T20:29:04.291Z,101760.78
2018-12-11T20:31:33.255Z,101761.34
2018-12-11T20:34:04.606Z,101764.03
2018-12-11T20:36:33.555Z,101770.30
2018-12-11T20:39:02.592Z,101776.88
2018-12-11T20:41:31.596Z,101766.76
2018-12-11T20:44:00.542Z,101777.49
2018-12-11T20:46:29.419Z,101774.41
2018-12-11T20:48:58.379Z,101780.64
2018-12-11T20:51:27.319Z,101790.06
2018-12-11T20:53:56.296Z,101786.73
2018-12-11T20:56:25.245Z,101786.39
2018-12-11T20:58:54.245Z,101791.94
2018-12-11T21:01:23.159Z,101792.43
2018-12-11T21:03:52.121Z,101798.84
2018-12-11T21:06:21.081Z,101797.08
2018-12-11T21:08:49.994Z,101801.43
2018-12-11T21:11:18.956Z,101797.91
2018-12-11T21:13:47.923Z,101797.41
2018-12-11T21:16:16.897Z,101794.52
2018-12-11T21:18:46.100Z,101795.97
2018-12-11T21:21:15.090Z,101799.41
2018-12-11T21:23:45.690Z,101800.44
2018-12-11T21:26:14.624Z,101807.39
2018-12-11T21:28:43.501Z,101807.47
2018-12-11T21:31:12.406Z,101803.69
2018-12-11T21:33:41.368Z,101805.00
2018-12-11T21:36:10.351Z,101809.48
2018-12-11T21:38:40.221Z,101810.83
2018-12-11T21:41:09.409Z,101817.16
2018-12-11T21:43:38.285Z,101821.92
2018-12-11T21:46:07.277Z,101830.26
2018-12-11T21:48:36.340Z,101822.89
2018-12-11T21:51:05.455Z,101831.97
2018-12-11T21:53:34.412Z,101827.69
2018-12-11T21:56:03.333Z,101832.52
2018-12-11T21:58:32.226Z,101826.95
2018-12-11T22:01:01.208Z,101834.00
2018-12-11T22:03:30.576Z,101829.41
2018-12-11T22:05:59.829Z,101839.63
2018-12-11T22:08:28.792Z,101845.36
2018-12-11T22:10:57.749Z,101843.48
2018-12-11T22:13:26.621Z,101840.83
2018-12-11T22:15:55.572Z,101844.02
2018-12-11T22:18:25.094Z,101843.47
2018-12-11T22:20:54.037Z,101843.31
2018-12-11T22:23:22.973Z,101846.97
2018-12-11T22:25:51.944Z,101848.48
2018-12-11T22:28:20.878Z,101852.69
2018-12-11T22:30:49.819Z,101854.28
2018-12-11T22:33:18.803Z,101853.52
2018-12-11T22:35:47.860Z,101853.27
2018-12-11T22:38:16.866Z,101852.38
2018-12-11T22:40:45.810Z,101852.63
2018-12-11T22:43:14.744Z,101851.94
2018-12-11T22:45:44.224Z,101856.34
2018-12-11T22:48:13.183Z,101854.86
2018-12-11T22:50:42.071Z,101859.55
2018-12-11T22:53:10.967Z,101862.77
2018-12-11T22:55:40.107Z,101860.31
2018-12-11T22:58:09.336Z,101861.22
2018-12-11T23:00:38.989Z,101862.44
2018-12-11T23:03:08.412Z,101865.37
2018-12-11T23:05:37.317Z,101860.52
2018-12-11T23:08:06.604Z,101870.11
2018-12-11T23:10:35.807Z,101868.47
2018-12-11T23:13:05.115Z,101863.15
2018-12-11T23:15:34.374Z,101866.82
2018-12-11T23:18:03.286Z,101865.47
2018-12-11T23:20:32.316Z,101868.00
2018-12-11T23:23:02.952Z,101876.77
2018-12-11T23:25:34.865Z,101881.64
2018-12-11T23:28:07.811Z,101883.66
2018-12-11T23:30:43.624Z,101881.23
2018-12-11T23:33:12.618Z,101878.98
2018-12-11T23:35:41.481Z,101886.33
2018-12-11T23:38:10.377Z,101882.94
2018-12-11T23:40:39.245Z,101888.17
2018-12-11T23:43:08.255Z,101880.27
2018-12-11T23:45:37.126Z,101887.83
2018-12-11T23:48:05.993Z,101883.55
2018-12-11T23:50:35.056Z,101890.32
2018-12-11T23:53:04.377Z,101881.81
2018-12-11T23:55:35.544Z,101889.00
2018-12-11T23:58:04.728Z,101887.09
